Time;durP1;ratioP1;P1;durP2;ratioP2;P2;SDS_P1;SDS_P2;PMS_P1;PMS_P2;Temp;Humidity;BMP_temperature;BMP_pressure;BME280_temperature;BME280_humidity;BME280_pressure;Samples;Min_cycle;Max_cycle;Signal;HPM_P1;HPM_P2
2021/06/17 00:02:07;;;;;;;4.87;3.77;;;26.80;61.90;;;;;;5033037;28;20532;-75
2021/06/17 00:04:33;;;;;;;3.90;3.60;;;26.80;62.70;;;;;;5016159;28;20178;-75
2021/06/17 00:06:59;;;;;;;3.97;3.60;;;26.70;63.00;;;;;;5033392;28;20603;-75
2021/06/17 00:09:25;;;;;;;3.73;3.27;;;26.70;63.20;;;;;;5015956;28;20967;-75
2021/06/17 00:11:51;;;;;;;4.33;3.93;;;26.60;63.30;;;;;;5033680;28;20599;-75
2021/06/17 00:14:18;;;;;;;3.93;3.27;;;26.60;63.50;;;;;;5015865;28;20634;-75
2021/06/17 00:16:44;;;;;;;4.47;4.07;;;26.50;64.30;;;;;;5015571;28;20754;-75
2021/06/17 00:19:10;;;;;;;3.30;3.00;;;26.50;64.10;;;;;;5033625;28;20596;-75
2021/06/17 00:21:36;;;;;;;4.10;3.53;;;26.50;64.30;;;;;;5033557;28;21057;-75
2021/06/17 00:24:02;;;;;;;3.53;2.90;;;26.50;64.60;;;;;;5033379;28;20510;-75
2021/06/17 00:26:27;;;;;;;3.90;3.50;;;26.50;64.80;;;;;;5037308;28;20568;-75
2021/06/17 00:28:53;;;;;;;3.20;3.00;;;26.40;65.00;;;;;;5034231;28;20565;-75
2021/06/17 00:31:27;;;;;;;6.50;3.83;;;26.40;65.40;;;;;;5034511;28;20170;-75
2021/06/17 00:34:09;;;;;;;3.33;3.00;;;26.30;65.80;;;;;;5001065;28;20188;-75
2021/06/17 00:36:39;;;;;;;3.90;3.60;;;26.30;66.30;;;;;;5033922;28;21131;-75
2021/06/17 00:39:08;;;;;;;3.80;3.33;;;26.30;66.00;;;;;;4999240;28;21146;-74
2021/06/17 00:41:39;;;;;;;4.27;3.77;;;26.20;66.40;;;;;;5033223;28;20570;-75
2021/06/17 00:44:40;;;;;;;3.87;3.37;;;26.20;66.60;;;;;;4994558;28;20590;-75
2021/06/17 00:47:27;;;;;;;3.40;3.10;;;26.20;66.50;;;;;;5000445;28;21200;-75
2021/06/17 00:49:52;;;;;;;3.37;3.13;;;26.10;66.60;;;;;;5033071;28;20951;-74
2021/06/17 00:52:18;;;;;;;4.97;4.03;;;26.00;67.40;;;;;;5047392;28;20590;-75
2021/06/17 00:54:44;;;;;;;5.70;3.40;;;26.00;67.40;;;;;;5046717;28;20232;-75
2021/06/17 00:57:10;;;;;;;4.00;3.67;;;25.90;67.80;;;;;;5052278;28;20195;-75
2021/06/17 00:59:37;;;;;;;6.40;3.90;;;25.90;68.70;;;;;;5035152;28;20248;-75
2021/06/17 01:02:03;;;;;;;4.20;3.80;;;25.80;70.00;;;;;;5018475;28;21153;-75
2021/06/17 01:04:30;;;;;;;4.70;3.67;;;25.70;69.60;;;;;;5057468;28;20971;-75
2021/06/17 01:06:57;;;;;;;4.70;3.50;;;25.70;70.00;;;;;;5034384;28;20596;-74
2021/06/17 01:09:48;;;;;;;2.90;2.70;;;25.70;70.10;;;;;;5052781;28;20983;-75
2021/06/17 01:12:37;;;;;;;4.27;3.37;;;25.60;70.40;;;;;;5052337;28;20607;-75
2021/06/17 01:15:14;;;;;;;3.50;3.20;;;25.60;71.70;;;;;;5052262;28;20685;-75
2021/06/17 01:17:45;;;;;;;4.60;4.30;;;25.50;71.10;;;;;;5034340;28;20603;-75
2021/06/17 01:20:21;;;;;;;3.30;3.10;;;25.50;72.20;;;;;;5052582;28;20958;-75
2021/06/17 01:23:00;;;;;;;4.00;3.60;;;25.50;72.00;;;;;;5052381;28;20563;-75
2021/06/17 01:26:04;;;;;;;3.60;3.30;;;25.40;73.10;;;;;;5052287;28;20579;-75
2021/06/17 01:28:31;;;;;;;5.57;3.57;;;25.40;73.20;;;;;;5057375;28;21162;-75
2021/06/17 01:31:01;;;;;;;7.23;3.60;;;25.40;73.20;;;;;;5060672;28;20678;-75
2021/06/17 01:33:37;;;;;;;4.07;3.77;;;25.30;73.90;;;;;;5060397;28;21013;-74
2021/06/17 01:36:10;;;;;;;4.10;3.70;;;25.30;75.50;;;;;;5058838;28;20618;-76
2021/06/17 01:38:37;;;;;;;5.30;3.67;;;25.30;75.40;;;;;;5068214;28;20682;-74
2021/06/17 01:41:04;;;;;;;3.60;3.30;;;25.30;75.60;;;;;;5057263;28;20616;-75
2021/06/17 01:43:30;;;;;;;3.27;2.97;;;25.30;75.50;;;;;;5052406;28;20552;-75
2021/06/17 01:45:58;;;;;;;4.00;3.70;;;25.30;75.60;;;;;;5051951;28;20926;-74
2021/06/17 01:48:26;;;;;;;4.10;3.07;;;25.20;76.00;;;;;;5052083;28;20621;-74
2021/06/17 01:50:53;;;;;;;4.43;3.63;;;25.20;76.10;;;;;;5052111;28;20567;-75
2021/06/17 01:53:22;;;;;;;3.83;3.53;;;25.20;76.70;;;;;;5052114;28;20591;-74
2021/06/17 01:55:50;;;;;;;5.70;3.47;;;25.20;77.10;;;;;;5051511;28;20886;-75
2021/06/17 01:58:18;;;;;;;4.40;3.07;;;25.10;77.10;;;;;;5051741;28;20621;-75
2021/06/17 02:00:45;;;;;;;3.50;3.20;;;25.10;77.10;;;;;;5051577;28;20564;-75
2021/06/17 02:03:14;;;;;;;3.77;3.47;;;25.10;77.90;;;;;;5051644;28;20572;-74
2021/06/17 02:05:41;;;;;;;4.10;3.67;;;25.10;77.70;;;;;;5051322;28;20649;-74
2021/06/17 02:08:08;;;;;;;3.73;3.40;;;25.10;78.40;;;;;;5033586;28;21216;-75
2021/06/17 02:10:36;;;;;;;3.93;3.63;;;25.10;78.50;;;;;;5051501;28;20594;-75
2021/06/17 02:13:03;;;;;;;5.00;3.60;;;25.00;78.60;;;;;;5051384;28;20586;-75
2021/06/17 02:15:30;;;;;;;3.37;3.07;;;25.00;78.60;;;;;;5054946;28;20619;-75
2021/06/17 02:17:58;;;;;;;4.50;4.03;;;25.00;78.90;;;;;;5052547;28;20587;-75
2021/06/17 02:20:25;;;;;;;3.03;2.60;;;25.00;79.20;;;;;;5051489;28;20571;-76
2021/06/17 02:22:53;;;;;;;3.37;3.07;;;24.90;79.30;;;;;;5051501;28;20560;-76
2021/06/17 02:25:22;;;;;;;3.90;3.50;;;24.90;79.70;;;;;;5053334;28;20662;-76
2021/06/17 02:27:53;;;;;;;4.10;3.70;;;24.90;80.30;;;;;;5055186;28;20591;-75
2021/06/17 02:30:20;;;;;;;3.33;3.07;;;24.90;81.60;;;;;;5055618;28;20571;-75
2021/06/17 02:32:50;;;;;;;4.20;3.37;;;24.80;80.80;;;;;;5037692;28;20583;-75
2021/06/17 02:35:21;;;;;;;4.50;3.60;;;24.80;81.30;;;;;;5055302;28;20611;-75
2021/06/17 02:37:53;;;;;;;3.63;3.43;;;24.80;81.70;;;;;;5037210;28;20597;-75
2021/06/17 02:40:21;;;;;;;6.60;3.40;;;24.70;82.60;;;;;;5055245;28;20568;-75
2021/06/17 02:42:48;;;;;;;5.03;3.13;;;24.70;82.40;;;;;;5037640;28;20568;-75
2021/06/17 02:45:15;;;;;;;4.10;3.70;;;24.70;82.70;;;;;;5055193;28;21132;-75
2021/06/17 02:47:41;;;;;;;4.17;3.77;;;24.70;83.10;;;;;;5054607;28;21044;-75
2021/06/17 02:50:07;;;;;;;3.50;3.13;;;24.70;83.50;;;;;;5055183;28;20670;-75
2021/06/17 02:52:33;;;;;;;5.17;4.00;;;24.70;83.80;;;;;;5060193;28;20723;-75
2021/06/17 02:54:59;;;;;;;4.13;3.70;;;24.70;84.00;;;;;;5054981;28;20619;-75
2021/06/17 02:57:46;;;;;;;5.17;4.67;;;24.60;85.10;;;;;;5054770;28;20193;-75
2021/06/17 03:00:16;;;;;;;3.33;3.03;;;24.60;85.30;;;;;;5055015;28;20165;-75
2021/06/17 03:03:07;;;;;;;3.53;3.23;;;24.60;85.50;;;;;;5037026;28;20566;-75
2021/06/17 03:05:40;;;;;;;4.07;3.50;;;24.50;87.50;;;;;;5054767;28;20583;-75
2021/06/17 03:08:24;;;;;;;4.97;3.63;;;24.50;86.60;;;;;;5054651;28;20595;-75
2021/06/17 03:10:54;;;;;;;3.90;3.30;;;24.50;85.90;;;;;;5054729;28;20563;-75
2021/06/17 03:13:24;;;;;;;4.53;4.10;;;24.50;86.60;;;;;;5054595;28;20563;-75
2021/06/17 03:15:51;;;;;;;4.30;3.90;;;24.50;86.80;;;;;;5054125;28;20614;-75
2021/06/17 03:18:18;;;;;;;3.63;3.30;;;24.50;87.10;;;;;;5054563;28;20595;-75
2021/06/17 03:20:45;;;;;;;5.77;3.37;;;24.40;86.90;;;;;;5020406;28;20598;-75
2021/06/17 03:23:18;;;;;;;4.33;3.93;;;24.50;87.40;;;;;;5054468;28;20592;-75
2021/06/17 03:25:49;;;;;;;4.20;3.80;;;24.40;87.90;;;;;;5052875;28;20617;-75
2021/06/17 03:28:16;;;;;;;3.67;3.33;;;24.40;87.70;;;;;;5059381;28;20587;-75
2021/06/17 03:30:51;;;;;;;3.67;3.27;;;24.40;87.70;;;;;;5055129;28;20580;-75
2021/06/17 03:33:21;;;;;;;3.53;3.23;;;24.40;88.00;;;;;;5036758;28;20583;-75
2021/06/17 03:35:48;;;;;;;3.63;3.10;;;24.40;88.30;;;;;;5053102;28;20611;-75
2021/06/17 03:38:15;;;;;;;4.50;3.30;;;24.40;88.10;;;;;;5035785;28;20690;-75
2021/06/17 03:40:43;;;;;;;4.37;3.30;;;24.40;89.10;;;;;;5054165;28;21135;-75
2021/06/17 03:43:09;;;;;;;3.43;3.13;;;24.40;89.30;;;;;;5054146;28;20576;-75
2021/06/17 03:45:39;;;;;;;4.10;3.80;;;24.40;89.70;;;;;;5053818;28;20579;-75
2021/06/17 03:48:07;;;;;;;4.27;3.97;;;24.40;89.60;;;;;;5038627;28;20766;-78
2021/06/17 03:50:35;;;;;;;3.50;3.20;;;24.40;90.10;;;;;;5056275;28;20590;-78
2021/06/17 03:53:02;;;;;;;3.63;3.13;;;24.40;90.20;;;;;;5056360;28;20622;-78
2021/06/17 03:55:29;;;;;;;3.93;3.43;;;24.40;90.10;;;;;;5058071;28;20709;-79
2021/06/17 03:57:56;;;;;;;4.37;3.97;;;24.40;90.20;;;;;;5039991;28;20737;-78
2021/06/17 04:00:24;;;;;;;3.10;2.90;;;24.50;90.20;;;;;;5056030;28;20559;-78
2021/06/17 04:02:53;;;;;;;4.50;3.37;;;24.50;90.50;;;;;;5037854;28;20575;-78
2021/06/17 04:05:19;;;;;;;3.40;3.10;;;24.50;90.50;;;;;;5059753;28;21046;-78
2021/06/17 04:07:46;;;;;;;4.63;3.10;;;24.50;90.40;;;;;;5054710;28;20681;-78
2021/06/17 04:10:15;;;;;;;3.90;3.60;;;24.50;90.80;;;;;;5054938;28;20935;-78
2021/06/17 04:12:42;;;;;;;5.00;3.90;;;24.50;90.50;;;;;;5055505;28;20617;-78
2021/06/17 04:15:09;;;;;;;5.00;3.90;;;24.60;90.70;;;;;;5038074;28;20607;-78
2021/06/17 04:17:43;;;;;;;3.43;3.10;;;24.60;90.80;;;;;;5056568;28;20583;-78
2021/06/17 04:20:20;;;;;;;4.57;3.70;;;24.60;90.90;;;;;;5036473;28;20571;-79
2021/06/17 04:22:48;;;;;;;4.33;3.23;;;24.60;90.70;;;;;;5053738;28;20575;-79
2021/06/17 04:25:19;;;;;;;3.40;2.83;;;24.70;90.80;;;;;;5038301;28;20563;-78
2021/06/17 04:27:46;;;;;;;3.23;2.80;;;24.70;91.00;;;;;;5056386;28;20695;-78
2021/06/17 04:30:14;;;;;;;5.67;3.97;;;24.80;90.80;;;;;;5065438;28;20911;-78
2021/06/17 04:32:45;;;;;;;5.70;3.23;;;24.80;90.70;;;;;;5044272;28;20996;-78
2021/06/17 04:35:12;;;;;;;3.27;2.97;;;24.90;90.70;;;;;;5057650;28;20619;-78
2021/06/17 04:37:39;;;;;;;3.67;3.37;;;24.90;90.60;;;;;;5058518;28;20695;-78
2021/06/17 04:40:07;;;;;;;3.10;2.80;;;25.00;90.60;;;;;;5058269;28;20564;-79
2021/06/17 04:42:33;;;;;;;4.53;2.80;;;25.10;90.60;;;;;;5059444;28;20583;-79
2021/06/17 04:44:59;;;;;;;6.17;3.27;;;25.10;90.50;;;;;;5054389;28;20576;-78
2021/06/17 04:47:25;;;;;;;4.07;3.30;;;25.20;90.40;;;;;;5036447;28;20623;-78
2021/06/17 04:49:51;;;;;;;3.97;3.60;;;25.20;90.30;;;;;;5036058;28;21154;-77
2021/06/17 04:52:30;;;;;;;5.43;3.60;;;25.20;90.30;;;;;;5058487;28;20568;-76
2021/06/17 04:54:55;;;;;;;3.93;3.63;;;25.30;90.40;;;;;;5058359;28;20200;-77
2021/06/17 04:57:21;;;;;;;7.07;4.10;;;25.30;90.40;;;;;;5064097;28;20729;-78
2021/06/17 04:59:47;;;;;;;3.30;3.00;;;25.40;90.40;;;;;;5058964;28;20531;-77
2021/06/17 05:02:12;;;;;;;5.80;3.80;;;25.50;90.50;;;;;;5063845;28;20176;-78
2021/06/17 05:04:39;;;;;;;4.87;3.33;;;25.70;90.40;;;;;;5063473;28;20172;-78
2021/06/17 05:12:16;;;;;;;4.70;3.20;;;26.00;90.10;;;;;;5058562;28;20951;-78
2021/06/17 05:14:41;;;;;;;3.73;2.70;;;26.20;90.00;;;;;;5061404;28;20721;-78
2021/06/17 05:17:07;;;;;;;4.30;3.90;;;26.30;89.50;;;;;;5042267;28;20936;-78
2021/06/17 05:19:33;;;;;;;2.77;2.57;;;26.50;88.40;;;;;;5062511;28;20206;-78
2021/06/17 05:22:02;;;;;;;4.07;2.37;;;26.60;87.90;;;;;;5038379;28;20177;-79
2021/06/17 05:24:28;;;;;;;4.90;3.47;;;26.60;87.60;;;;;;5036861;28;20550;-78
2021/06/17 05:26:54;;;;;;;3.17;2.97;;;26.80;87.30;;;;;;5053601;28;20603;-79
2021/06/17 05:29:20;;;;;;;3.83;3.40;;;26.90;86.90;;;;;;5052864;28;20173;-79
2021/06/17 05:31:45;;;;;;;3.80;2.40;;;27.00;86.40;;;;;;5041132;28;20576;-79
2021/06/17 05:34:11;;;;;;;3.80;2.60;;;27.00;86.30;;;;;;5053594;28;20181;-79
2021/06/17 05:36:40;;;;;;;3.40;3.10;;;27.00;85.90;;;;;;5035048;28;20572;-78
2021/06/17 05:39:06;;;;;;;6.63;3.30;;;27.10;85.40;;;;;;5052714;28;20176;-79
2021/06/17 05:41:32;;;;;;;5.30;2.73;;;27.20;85.10;;;;;;5056207;28;20564;-79
2021/06/17 05:43:58;;;;;;;6.87;3.30;;;27.40;85.10;;;;;;5056958;28;20235;-77
2021/06/17 05:46:24;;;;;;;3.83;2.70;;;27.60;84.60;;;;;;5035610;28;20703;-77
2021/06/17 05:48:50;;;;;;;3.10;2.80;;;27.90;84.40;;;;;;5053983;28;20325;-79
2021/06/17 05:51:15;;;;;;;4.60;3.00;;;28.20;84.40;;;;;;5055022;28;20585;-79
2021/06/17 05:53:41;;;;;;;4.03;3.07;;;28.70;83.90;;;;;;5055404;28;20169;-79
2021/06/17 05:56:07;;;;;;;9.10;3.40;;;29.30;83.20;;;;;;5022196;28;20587;-79
2021/06/17 05:58:35;;;;;;;3.87;3.07;;;30.10;83.00;;;;;;5050470;28;20192;-80
2021/06/17 06:01:01;;;;;;;3.10;2.53;;;30.60;79.90;;;;;;5031610;28;20253;-79
2021/06/17 06:03:27;;;;;;;3.30;2.40;;;31.30;78.50;;;;;;5033112;28;21133;-80
2021/06/17 06:05:52;;;;;;;4.30;2.83;;;31.80;76.30;;;;;;5032018;28;20568;-80
2021/06/17 06:08:18;;;;;;;2.93;2.53;;;32.40;74.40;;;;;;5050787;28;20606;-80
2021/06/17 06:10:44;;;;;;;3.70;2.63;;;32.90;73.70;;;;;;5018683;28;20178;-80
2021/06/17 06:13:10;;;;;;;3.40;2.70;;;33.30;71.50;;;;;;5052181;28;20183;-80
2021/06/17 06:15:37;;;;;;;6.80;2.30;;;33.70;68.20;;;;;;5052433;28;21257;-80
2021/06/17 06:18:30;;;;;;;3.50;2.63;;;34.00;65.20;;;;;;5056685;28;20601;-80
2021/06/17 06:20:57;;;;;;;5.33;2.73;;;34.20;62.70;;;;;;5033476;28;20592;-80
2021/06/17 06:23:24;;;;;;;3.80;2.50;;;34.70;62.30;;;;;;5051066;28;20594;-81
2021/06/17 06:25:51;;;;;;;2.10;1.90;;;34.90;60.00;;;;;;5039672;28;20611;-81
2021/06/17 06:28:18;;;;;;;5.20;2.23;;;35.20;59.60;;;;;;5035618;28;21035;-80
2021/06/17 06:30:45;;;;;;;4.53;2.30;;;35.50;59.30;;;;;;5056171;28;20592;-80
2021/06/17 06:33:10;;;;;;;2.70;2.50;;;35.90;58.30;;;;;;5054400;28;20607;-77
2021/06/17 06:35:36;;;;;;;2.30;2.10;;;36.20;58.00;;;;;;5053477;28;20673;-78
2021/06/17 06:38:03;;;;;;;2.37;2.17;;;36.60;57.80;;;;;;5053051;28;20219;-77
2021/06/17 06:40:29;;;;;;;3.27;2.30;;;37.00;56.20;;;;;;5053638;28;20165;-78
2021/06/17 06:42:56;;;;;;;4.63;2.47;;;37.40;55.80;;;;;;5019682;28;21244;-78
2021/06/17 06:45:23;;;;;;;2.73;1.97;;;37.80;55.40;;;;;;5053876;28;20602;-77
2021/06/17 06:47:50;;;;;;;2.27;1.80;;;38.20;54.30;;;;;;5056548;28;20642;-76
2021/06/17 06:50:16;;;;;;;2.70;2.03;;;38.30;53.10;;;;;;5058429;28;20610;-76
2021/06/17 06:52:42;;;;;;;3.07;2.30;;;38.20;52.20;;;;;;5046900;28;20589;-76
2021/06/17 06:55:08;;;;;;;2.43;2.20;;;38.40;52.00;;;;;;5047876;28;20199;-76
2021/06/17 06:57:35;;;;;;;6.37;2.13;;;38.60;51.60;;;;;;5033606;28;20216;-77
2021/06/17 07:00:01;;;;;;;3.00;1.80;;;38.50;50.90;;;;;;5060410;28;20746;-76
2021/06/17 07:02:27;;;;;;;3.07;1.93;;;38.60;50.70;;;;;;5029117;28;20583;-77
2021/06/17 07:04:52;;;;;;;5.17;2.30;;;39.00;50.60;;;;;;5043453;28;20173;-77
2021/06/17 07:07:20;;;;;;;3.27;2.23;;;39.20;50.10;;;;;;5062442;28;20188;-78
2021/06/17 07:09:46;;;;;;;3.50;1.70;;;39.10;49.10;;;;;;5055509;28;20661;-78
2021/06/17 07:12:12;;;;;;;5.73;2.43;;;39.20;48.20;;;;;;5058195;28;20563;-77
2021/06/17 07:14:37;;;;;;;3.60;2.10;;;39.20;47.40;;;;;;5058374;28;20193;-78
2021/06/17 07:17:04;;;;;;;2.97;1.90;;;39.20;48.00;;;;;;5041100;28;20594;-77
2021/06/17 07:19:30;;;;;;;6.40;2.73;;;39.30;47.80;;;;;;5041371;28;20236;-77
2021/06/17 07:21:58;;;;;;;7.73;2.40;;;39.50;47.70;;;;;;5058981;28;20614;-77
2021/06/17 07:24:24;;;;;;;3.43;1.80;;;39.80;47.50;;;;;;5056498;28;20177;-78
2021/06/17 07:26:51;;;;;;;3.00;1.90;;;39.90;47.10;;;;;;5055454;28;20591;-77
2021/06/17 07:29:17;;;;;;;2.10;1.90;;;40.10;47.00;;;;;;5055418;28;20176;-78
2021/06/17 07:31:43;;;;;;;1.97;1.60;;;40.20;46.00;;;;;;5056520;28;20563;-77
2021/06/17 07:34:11;;;;;;;3.10;1.87;;;40.40;46.00;;;;;;5055134;28;20164;-78
2021/06/17 07:36:38;;;;;;;3.93;2.63;;;40.50;45.20;;;;;;5054998;28;20177;-78
2021/06/17 07:39:06;;;;;;;2.70;2.00;;;40.70;44.70;;;;;;5054777;28;20933;-76
2021/06/17 07:41:32;;;;;;;4.37;1.60;;;40.80;44.40;;;;;;5020430;28;20662;-77
2021/06/17 07:43:58;;;;;;;2.83;2.00;;;41.00;45.10;;;;;;5040619;28;21030;-76
2021/06/17 07:46:24;;;;;;;3.30;2.27;;;41.40;44.80;;;;;;5036209;28;20256;-77
2021/06/17 07:48:50;;;;;;;5.10;2.10;;;41.70;43.30;;;;;;5036466;28;20631;-77
2021/06/17 07:51:16;;;;;;;2.63;1.60;;;41.60;42.60;;;;;;5054707;28;20164;-77
2021/06/17 07:53:42;;;;;;;2.53;1.40;;;41.50;42.30;;;;;;5053778;28;20208;-76
2021/06/17 07:56:08;;;;;;;7.77;2.30;;;41.60;42.70;;;;;;5045431;28;20292;-77
2021/06/17 07:58:34;;;;;;;5.87;1.90;;;41.80;41.90;;;;;;5054024;28;20599;-78
2021/06/17 08:01:00;;;;;;;2.83;2.10;;;41.80;41.20;;;;;;5054314;28;20587;-76
2021/06/17 08:03:29;;;;;;;4.70;2.00;;;41.70;40.50;;;;;;5045101;28;20611;-77
2021/06/17 08:05:55;;;;;;;2.00;1.80;;;41.50;40.70;;;;;;5028026;28;20595;-77
2021/06/17 08:08:21;;;;;;;2.20;1.80;;;41.50;41.20;;;;;;5042054;28;20592;-74
2021/06/17 08:10:46;;;;;;;3.87;2.27;;;41.40;40.70;;;;;;5033519;28;20253;-75
2021/06/17 08:13:12;;;;;;;2.50;1.70;;;41.00;40.30;;;;;;5033738;28;20659;-75
2021/06/17 08:15:38;;;;;;;2.73;1.63;;;40.70;40.80;;;;;;5015575;28;20312;-75
2021/06/17 08:18:05;;;;;;;3.10;1.80;;;40.60;41.10;;;;;;5033411;28;20189;-75
2021/06/17 08:20:31;;;;;;;2.77;2.40;;;40.80;41.00;;;;;;5034776;28;20165;-75
2021/06/17 08:22:56;;;;;;;3.50;2.17;;;40.80;40.90;;;;;;5032578;28;20572;-75
2021/06/17 08:25:22;;;;;;;3.63;1.90;;;40.70;40.80;;;;;;5033311;28;20215;-76
2021/06/17 08:27:48;;;;;;;3.50;2.07;;;40.80;41.10;;;;;;5033126;28;20205;-74
2021/06/17 08:30:18;;;;;;;2.27;1.80;;;40.80;40.90;;;;;;5053159;28;20179;-75
2021/06/17 08:32:48;;;;;;;1.80;1.33;;;40.80;40.50;;;;;;5053072;28;20184;-75
2021/06/17 08:35:15;;;;;;;3.20;1.70;;;40.80;40.80;;;;;;5035136;28;20618;-75
2021/06/17 08:37:41;;;;;;;2.43;1.80;;;41.20;40.80;;;;;;5052697;28;20595;-75
2021/06/17 08:40:08;;;;;;;2.13;1.93;;;41.20;40.40;;;;;;5052880;28;20564;-75
2021/06/17 08:42:34;;;;;;;3.00;2.03;;;41.20;40.10;;;;;;5053086;28;20658;-76
2021/06/17 08:45:05;;;;;;;2.47;1.70;;;41.00;39.70;;;;;;5034765;28;20684;-75
2021/06/17 08:47:32;;;;;;;2.00;1.60;;;41.00;40.10;;;;;;5031621;28;20205;-76
2021/06/17 08:50:00;;;;;;;2.70;1.67;;;41.00;40.10;;;;;;5032752;28;20580;-75
2021/06/17 08:52:32;;;;;;;2.40;1.80;;;41.40;40.70;;;;;;5015046;28;20569;-75
2021/06/17 08:55:12;;;;;;;3.33;1.90;;;41.60;39.90;;;;;;5015712;28;20819;-75
2021/06/17 08:57:38;;;;;;;2.53;1.80;;;41.80;39.70;;;;;;5036787;28;20592;-75
2021/06/17 09:00:27;;;;;;;2.20;2.00;;;41.90;39.70;;;;;;5032795;28;20606;-76
2021/06/17 09:02:54;;;;;;;4.13;1.60;;;42.10;39.40;;;;;;5015092;28;20201;-76
2021/06/17 09:05:20;;;;;;;2.53;1.77;;;42.40;39.20;;;;;;5032698;28;20576;-76
2021/06/17 09:07:47;;;;;;;2.20;1.60;;;42.50;39.00;;;;;;5032140;28;20622;-76
2021/06/17 09:10:12;;;;;;;3.40;1.50;;;42.60;38.80;;;;;;5014155;28;21178;-76
2021/06/17 09:12:50;;;;;;;2.40;2.20;;;42.60;38.90;;;;;;5014937;28;20577;-75
2021/06/17 09:15:41;;;;;;;3.50;2.33;;;42.90;39.00;;;;;;5032356;28;20247;-75
2021/06/17 09:18:15;;;;;;;1.90;1.33;;;43.30;39.40;;;;;;5014840;28;20933;-76
2021/06/17 09:21:08;;;;;;;1.77;1.20;;;43.70;39.70;;;;;;5014901;28;20568;-76
2021/06/17 09:23:39;;;;;;;3.20;1.20;;;44.40;39.30;;;;;;5021353;28;20583;-76
2021/06/17 09:26:06;;;;;;;2.47;1.73;;;44.90;39.10;;;;;;5031050;28;20650;-76
2021/06/17 09:29:03;;;;;;;2.47;1.87;;;45.30;38.00;;;;;;5051054;28;20607;-76
2021/06/17 09:31:30;;;;;;;4.07;1.93;;;44.90;36.60;;;;;;5038532;28;20588;-76
2021/06/17 09:33:57;;;;;;;2.27;1.80;;;44.60;36.40;;;;;;5035593;28;20586;-76
2021/06/17 09:36:31;;;;;;;3.83;1.70;;;44.60;36.80;;;;;;5015359;28;20627;-76
2021/06/17 09:39:00;;;;;;;2.37;1.50;;;44.90;37.30;;;;;;5052437;28;20930;-76
2021/06/17 09:41:32;;;;;;;2.13;2.03;;;45.30;37.20;;;;;;5047459;28;20614;-76
2021/06/17 09:43:58;;;;;;;1.70;1.30;;;45.70;36.80;;;;;;5035189;28;20564;-75
2021/06/17 09:46:24;;;;;;;3.50;1.47;;;45.90;36.10;;;;;;5051925;28;20575;-76
2021/06/17 09:48:50;;;;;;;3.20;1.47;;;46.10;36.20;;;;;;5112755;22;20330;-79
2021/06/17 09:51:26;;;;;;;1.63;1.30;;;46.50;36.40;;;;;;5082823;28;20636;-79
2021/06/17 09:54:06;;;;;;;4.70;1.40;;;46.60;35.60;;;;;;5082804;28;20582;-79
2021/06/17 09:56:34;;;;;;;3.73;1.50;;;46.90;35.80;;;;;;5074813;28;20595;-78
2021/06/17 09:58:59;;;;;;;2.40;1.37;;;47.20;35.70;;;;;;5086301;28;20590;-81
2021/06/17 10:01:35;;;;;;;4.60;1.70;;;47.10;34.30;;;;;;5076177;28;20563;-79
2021/06/17 10:04:06;;;;;;;1.87;1.57;;;46.80;32.60;;;;;;5083792;28;20178;-79
2021/06/17 10:06:34;;;;;;;2.30;1.30;;;46.50;33.50;;;;;;5057183;28;20989;-81
2021/06/17 10:09:03;;;;;;;7.87;2.37;;;46.20;33.70;;;;;;5057637;28;20611;-79
2021/06/17 10:11:30;;;;;;;1.90;1.70;;;46.30;33.80;;;;;;5052105;28;20617;-79
2021/06/17 10:13:55;;;;;;;2.10;1.90;;;45.90;33.60;;;;;;5034024;28;20663;-79
2021/06/17 10:16:21;;;;;;;3.03;1.77;;;45.50;33.50;;;;;;5016939;28;21038;-79
2021/06/17 10:18:47;;;;;;;2.93;1.90;;;45.10;33.80;;;;;;5051177;28;20228;-79
2021/06/17 10:21:17;;;;;;;2.33;2.13;;;45.00;34.20;;;;;;5060892;28;20180;-79
2021/06/17 10:23:45;;;;;;;1.90;1.70;;;45.00;34.30;;;;;;5070324;28;20294;-80
2021/06/17 10:26:12;;;;;;;2.77;2.30;;;45.00;34.30;;;;;;5036430;28;20630;-79
2021/06/17 10:28:47;;;;;;;2.57;2.20;;;44.70;33.80;;;;;;5071584;28;20583;-79
2021/06/17 10:31:33;;;;;;;2.80;1.73;;;44.40;33.90;;;;;;5018340;28;20602;-79
2021/06/17 10:34:22;;;;;;;2.97;2.03;;;44.20;34.70;;;;;;5050153;28;20587;-79
2021/06/17 10:37:10;;;;;;;2.60;1.90;;;44.20;34.30;;;;;;5051317;28;20890;-80
2021/06/17 10:39:48;;;;;;;1.60;1.47;;;44.00;34.20;;;;;;5058952;28;20591;-80
2021/06/17 10:42:28;;;;;;;3.00;2.30;;;43.80;34.10;;;;;;5054573;28;20562;-80
2021/06/17 10:45:32;;;;;;;3.60;2.60;;;43.50;33.60;;;;;;5052449;28;20953;-79
2021/06/17 10:48:05;;;;;;;2.67;2.10;;;42.80;33.20;;;;;;5026947;28;20587;-78
2021/06/17 10:50:38;;;;;;;2.67;1.50;;;42.40;33.70;;;;;;5035194;28;21154;-79
2021/06/17 10:53:24;;;;;;;2.67;1.63;;;42.20;34.00;;;;;;5000921;28;20564;-79
2021/06/17 10:56:09;;;;;;;2.47;1.57;;;42.10;34.30;;;;;;5034624;28;20576;-80
2021/06/17 10:58:50;;;;;;;1.67;1.30;;;42.00;34.50;;;;;;5054271;28;20652;-80
2021/06/17 11:01:32;;;;;;;2.80;1.70;;;42.00;34.50;;;;;;5057106;28;20589;-79
2021/06/17 11:04:13;;;;;;;1.83;1.53;;;42.00;34.60;;;;;;5057254;28;20572;-78
2021/06/17 11:06:51;;;;;;;3.30;1.67;;;42.10;34.90;;;;;;5075847;28;20621;-79
2021/06/17 11:09:35;;;;;;;2.63;1.77;;;42.30;35.00;;;;;;5074833;28;20594;-79
2021/06/17 11:12:03;;;;;;;4.40;1.77;;;42.40;35.10;;;;;;5041688;28;20633;-80
2021/06/17 11:14:42;;;;;;;2.43;2.00;;;42.60;35.10;;;;;;5065288;28;20578;-80
2021/06/17 11:17:26;;;;;;;1.93;1.60;;;42.80;35.30;;;;;;5051792;28;20663;-80
2021/06/17 11:20:13;;;;;;;2.00;1.77;;;42.90;35.40;;;;;;5084296;28;20611;-79
2021/06/17 11:22:49;;;;;;;2.10;1.57;;;42.90;35.40;;;;;;5039516;28;20578;-79
2021/06/17 11:25:18;;;;;;;4.37;2.00;;;42.80;35.20;;;;;;5059913;28;20983;-80
2021/06/17 11:28:12;;;;;;;2.20;1.80;;;42.90;34.90;;;;;;5084057;28;20589;-80
2021/06/17 11:30:37;;;;;;;2.13;1.40;;;42.90;34.50;;;;;;5040017;28;20678;-80
2021/06/17 11:33:15;;;;;;;3.43;1.60;;;42.90;34.70;;;;;;5070013;28;20999;-79
2021/06/17 11:35:42;;;;;;;1.93;1.73;;;42.70;34.70;;;;;;5030931;28;20206;-78
2021/06/17 11:38:08;;;;;;;2.73;1.93;;;42.70;35.00;;;;;;5031977;28;21033;-80
2021/06/17 11:40:34;;;;;;;3.00;1.90;;;43.00;35.20;;;;;;5065168;28;20606;-79
2021/06/17 11:43:01;;;;;;;1.80;1.67;;;43.00;34.90;;;;;;5039071;28;20238;-80
2021/06/17 11:45:35;;;;;;;2.57;1.23;;;42.90;34.60;;;;;;5037920;28;20673;-80
2021/06/17 11:48:03;;;;;;;3.13;1.53;;;43.00;34.20;;;;;;5034494;28;20592;-80
2021/06/17 11:50:30;;;;;;;5.97;2.13;;;42.70;34.00;;;;;;5015749;28;20760;-80
2021/06/17 11:52:56;;;;;;;2.27;1.57;;;42.40;34.20;;;;;;5039524;28;20935;-79
2021/06/17 11:55:28;;;;;;;2.27;1.60;;;42.20;34.30;;;;;;5069262;28;20583;-80
2021/06/17 11:57:53;;;;;;;3.70;1.63;;;42.10;34.60;;;;;;5070361;28;20987;-79
2021/06/17 12:00:32;;;;;;;2.20;2.00;;;42.20;34.90;;;;;;5068447;28;20601;-80
2021/06/17 12:02:58;;;;;;;2.20;1.83;;;42.10;34.30;;;;;;5095001;28;20172;-79
2021/06/17 12:05:24;;;;;;;2.80;1.80;;;41.90;34.40;;;;;;5086766;28;20711;-79
2021/06/17 12:07:52;;;;;;;3.30;2.03;;;41.60;34.40;;;;;;5073246;28;20585;-78
2021/06/17 12:10:23;;;;;;;5.63;2.50;;;41.50;34.70;;;;;;5060087;28;20567;-79
2021/06/17 12:12:54;;;;;;;2.40;2.20;;;41.50;35.10;;;;;;5052721;28;20574;-78
2021/06/17 12:15:21;;;;;;;2.20;2.00;;;41.20;35.00;;;;;;5049396;28;20614;-80
2021/06/17 12:17:51;;;;;;;3.10;2.80;;;41.10;35.40;;;;;;5076181;28;20583;-80
2021/06/17 12:20:36;;;;;;;2.33;2.07;;;41.00;35.70;;;;;;5063537;28;20604;-79
2021/06/17 12:23:11;;;;;;;3.70;2.17;;;40.80;35.70;;;;;;5079701;28;20575;-79
2021/06/17 12:25:56;;;;;;;2.40;2.10;;;40.60;35.70;;;;;;5075540;28;20637;-80
2021/06/17 12:28:21;;;;;;;6.00;2.33;;;40.30;36.00;;;;;;5094110;28;20591;-78
2021/06/17 12:30:52;;;;;;;2.87;2.23;;;40.20;36.50;;;;;;5091811;28;20593;-79
2021/06/17 12:33:22;;;;;;;4.80;2.40;;;40.10;36.80;;;;;;5069405;28;20245;-79
2021/06/17 12:35:47;;;;;;;3.70;3.20;;;40.00;37.30;;;;;;5088271;28;20606;-79
2021/06/17 12:38:22;;;;;;;3.47;2.97;;;39.90;37.50;;;;;;5069823;28;20618;-79
2021/06/17 12:40:47;;;;;;;2.97;2.67;;;39.80;37.90;;;;;;5047135;28;20180;-79
2021/06/17 12:43:19;;;;;;;7.00;2.87;;;39.60;38.00;;;;;;5042978;28;20576;-79
2021/06/17 12:45:58;;;;;;;3.50;2.50;;;39.50;38.20;;;;;;5080359;28;20212;-80
2021/06/17 12:54:23;;;;;;;3.80;3.37;;;38.80;39.40;;;;;;5076877;28;20555;-78
2021/06/17 12:57:01;;;;;;;4.37;3.60;;;38.70;39.30;;;;;;5047593;28;20669;-79
2021/06/17 12:59:41;;;;;;;4.40;4.00;;;38.60;39.70;;;;;;5062880;28;20599;-79
2021/06/17 13:02:12;;;;;;;5.97;4.27;;;38.30;40.90;;;;;;5042229;28;20574;-80
2021/06/17 13:04:39;;;;;;;3.80;3.50;;;38.20;40.70;;;;;;5019502;28;20657;-78
2021/06/17 13:07:19;;;;;;;4.80;4.30;;;38.00;40.80;;;;;;5036135;28;20589;-78
2021/06/17 13:09:45;;;;;;;3.90;3.60;;;37.90;41.20;;;;;;5038581;28;20977;-78
2021/06/17 13:12:16;;;;;;;4.07;3.20;;;37.90;40.80;;;;;;5055036;28;20586;-80
2021/06/17 13:15:11;;;;;;;3.63;3.30;;;37.90;40.90;;;;;;5035695;28;20611;-78